sensor_id;sensor_type;location;lat;lon;timestamp;P1;durP1;ratioP1;P2;durP2;ratioP2
15342;SDS011;7771;48.478;8.936;2024-01-30T00:01:00;16.67;;;9.37;;
15342;SDS011;7771;48.478;8.936;2024-01-30T00:03:27;13.60;;;9.50;;
15342;SDS011;7771;48.478;8.936;2024-01-30T00:05:54;12.77;;;8.53;;
15342;SDS011;7771;48.478;8.936;2024-01-30T00:08:22;11.87;;;8.27;;
15342;SDS011;7771;48.478;8.936;2024-01-30T00:10:48;12.23;;;8.77;;
15342;SDS011;7771;48.478;8.936;2024-01-30T00:13:16;13.57;;;8.93;;
15342;SDS011;7771;48.478;8.936;2024-01-30T00:15:42;13.73;;;8.13;;
15342;SDS011;7771;48.478;8.936;2024-01-30T00:18:09;12.17;;;8.43;;
15342;SDS011;7771;48.478;8.936;2024-01-30T00:20:37;12.37;;;9.30;;
15342;SDS011;7771;48.478;8.936;2024-01-30T00:23:04;13.37;;;8.23;;
15342;SDS011;7771;48.478;8.936;2024-01-30T00:25:31;12.83;;;9.23;;
15342;SDS011;7771;48.478;8.936;2024-01-30T00:27:58;13.23;;;9.00;;
15342;SDS011;7771;48.478;8.936;2024-01-30T00:30:25;13.60;;;8.83;;
15342;SDS011;7771;48.478;8.936;2024-01-30T00:32:53;13.10;;;8.93;;
15342;SDS011;7771;48.478;8.936;2024-01-30T00:35:19;12.20;;;9.17;;
15342;SDS011;7771;48.478;8.936;2024-01-30T00:37:47;13.50;;;9.30;;
15342;SDS011;7771;48.478;8.936;2024-01-30T00:40:15;14.53;;;8.73;;
15342;SDS011;7771;48.478;8.936;2024-01-30T00:42:42;13.73;;;9.63;;
15342;SDS011;7771;48.478;8.936;2024-01-30T00:45:13;13.57;;;8.77;;
15342;SDS011;7771;48.478;8.936;2024-01-30T00:47:41;12.10;;;8.93;;
15342;SDS011;7771;48.478;8.936;2024-01-30T00:50:07;13.50;;;9.13;;
15342;SDS011;7771;48.478;8.936;2024-01-30T00:52:35;10.27;;;8.13;;
15342;SDS011;7771;48.478;8.936;2024-01-30T00:55:03;13.20;;;9.27;;
15342;SDS011;7771;48.478;8.936;2024-01-30T00:57:31;12.60;;;8.70;;
15342;SDS011;7771;48.478;8.936;2024-01-30T00:59:57;13.43;;;8.70;;
15342;SDS011;7771;48.478;8.936;2024-01-30T01:02:26;14.57;;;9.23;;
15342;SDS011;7771;48.478;8.936;2024-01-30T01:04:54;12.33;;;8.50;;
15342;SDS011;7771;48.478;8.936;2024-01-30T01:07:21;11.53;;;8.87;;
15342;SDS011;7771;48.478;8.936;2024-01-30T01:09:48;16.37;;;8.80;;
15342;SDS011;7771;48.478;8.936;2024-01-30T01:12:15;11.57;;;8.70;;
15342;SDS011;7771;48.478;8.936;2024-01-30T01:14:42;13.33;;;9.17;;
15342;SDS011;7771;48.478;8.936;2024-01-30T01:17:09;13.00;;;8.93;;
15342;SDS011;7771;48.478;8.936;2024-01-30T01:19:36;12.97;;;9.37;;
15342;SDS011;7771;48.478;8.936;2024-01-30T01:22:03;14.10;;;8.90;;
15342;SDS011;7771;48.478;8.936;2024-01-30T01:24:31;15.57;;;9.53;;
15342;SDS011;7771;48.478;8.936;2024-01-30T01:26:58;14.03;;;10.13;;
15342;SDS011;7771;48.478;8.936;2024-01-30T01:29:24;14.93;;;10.57;;
15342;SDS011;7771;48.478;8.936;2024-01-30T01:31:52;16.53;;;10.67;;
15342;SDS011;7771;48.478;8.936;2024-01-30T01:34:20;15.10;;;11.10;;
15342;SDS011;7771;48.478;8.936;2024-01-30T01:36:46;10.77;;;8.80;;
15342;SDS011;7771;48.478;8.936;2024-01-30T01:39:14;17.93;;;10.60;;
15342;SDS011;7771;48.478;8.936;2024-01-30T01:41:41;17.07;;;11.23;;
15342;SDS011;7771;48.478;8.936;2024-01-30T01:44:09;21.27;;;12.93;;
15342;SDS011;7771;48.478;8.936;2024-01-30T01:46:36;17.50;;;11.17;;
15342;SDS011;7771;48.478;8.936;2024-01-30T01:49:03;16.70;;;10.07;;
15342;SDS011;7771;48.478;8.936;2024-01-30T01:51:31;15.63;;;10.67;;
15342;SDS011;7771;48.478;8.936;2024-01-30T01:53:57;16.17;;;9.73;;
15342;SDS011;7771;48.478;8.936;2024-01-30T01:56:24;12.43;;;8.87;;
15342;SDS011;7771;48.478;8.936;2024-01-30T01:58:51;18.53;;;11.37;;
15342;SDS011;7771;48.478;8.936;2024-01-30T02:01:19;15.07;;;10.47;;
15342;SDS011;7771;48.478;8.936;2024-01-30T02:03:45;17.50;;;10.80;;
15342;SDS011;7771;48.478;8.936;2024-01-30T02:06:14;13.20;;;10.53;;
15342;SDS011;7771;48.478;8.936;2024-01-30T02:08:41;16.30;;;11.03;;
15342;SDS011;7771;48.478;8.936;2024-01-30T02:11:09;16.83;;;13.03;;
15342;SDS011;7771;48.478;8.936;2024-01-30T02:13:36;19.30;;;14.07;;
15342;SDS011;7771;48.478;8.936;2024-01-30T02:16:03;17.97;;;12.97;;
15342;SDS011;7771;48.478;8.936;2024-01-30T02:18:30;16.60;;;12.97;;
15342;SDS011;7771;48.478;8.936;2024-01-30T02:20:58;15.10;;;11.83;;
15342;SDS011;7771;48.478;8.936;2024-01-30T02:23:25;19.03;;;12.97;;
15342;SDS011;7771;48.478;8.936;2024-01-30T02:25:52;20.43;;;12.03;;
15342;SDS011;7771;48.478;8.936;2024-01-30T02:28:19;17.77;;;11.47;;
15342;SDS011;7771;48.478;8.936;2024-01-30T02:30:46;14.83;;;9.43;;
15342;SDS011;7771;48.478;8.936;2024-01-30T02:33:12;12.60;;;9.27;;
15342;SDS011;7771;48.478;8.936;2024-01-30T02:35:40;15.17;;;11.10;;
15342;SDS011;7771;48.478;8.936;2024-01-30T02:38:06;21.20;;;12.20;;
15342;SDS011;7771;48.478;8.936;2024-01-30T02:40:33;16.73;;;11.47;;
15342;SDS011;7771;48.478;8.936;2024-01-30T02:43:02;16.50;;;11.43;;
15342;SDS011;7771;48.478;8.936;2024-01-30T02:45:28;18.20;;;11.13;;
15342;SDS011;7771;48.478;8.936;2024-01-30T02:47:56;16.17;;;11.30;;
15342;SDS011;7771;48.478;8.936;2024-01-30T02:50:24;15.07;;;10.40;;
15342;SDS011;7771;48.478;8.936;2024-01-30T02:52:52;19.80;;;11.43;;
15342;SDS011;7771;48.478;8.936;2024-01-30T02:55:18;27.70;;;16.73;;
15342;SDS011;7771;48.478;8.936;2024-01-30T02:57:46;28.47;;;16.83;;
15342;SDS011;7771;48.478;8.936;2024-01-30T03:00:13;21.60;;;14.90;;
15342;SDS011;7771;48.478;8.936;2024-01-30T03:02:40;20.97;;;12.93;;
15342;SDS011;7771;48.478;8.936;2024-01-30T03:05:07;21.10;;;13.47;;
15342;SDS011;7771;48.478;8.936;2024-01-30T03:07:35;14.33;;;10.50;;
15342;SDS011;7771;48.478;8.936;2024-01-30T03:10:03;14.87;;;10.50;;
15342;SDS011;7771;48.478;8.936;2024-01-30T03:12:30;16.70;;;9.73;;
15342;SDS011;7771;48.478;8.936;2024-01-30T03:14:57;11.67;;;9.37;;
15342;SDS011;7771;48.478;8.936;2024-01-30T03:17:24;14.77;;;10.00;;
15342;SDS011;7771;48.478;8.936;2024-01-30T03:19:51;12.33;;;8.83;;
15342;SDS011;7771;48.478;8.936;2024-01-30T03:22:18;12.73;;;9.70;;
15342;SDS011;7771;48.478;8.936;2024-01-30T03:24:45;18.47;;;9.87;;
15342;SDS011;7771;48.478;8.936;2024-01-30T03:27:11;11.37;;;8.90;;
15342;SDS011;7771;48.478;8.936;2024-01-30T03:29:38;16.80;;;9.17;;
15342;SDS011;7771;48.478;8.936;2024-01-30T03:32:05;12.43;;;9.20;;
15342;SDS011;7771;48.478;8.936;2024-01-30T03:34:31;13.00;;;9.47;;
15342;SDS011;7771;48.478;8.936;2024-01-30T03:37:03;13.40;;;9.67;;
15342;SDS011;7771;48.478;8.936;2024-01-30T03:39:30;11.30;;;8.77;;
15342;SDS011;7771;48.478;8.936;2024-01-30T03:41:57;11.93;;;8.10;;
15342;SDS011;7771;48.478;8.936;2024-01-30T03:44:24;11.07;;;7.73;;
15342;SDS011;7771;48.478;8.936;2024-01-30T03:46:50;10.00;;;7.87;;
15342;SDS011;7771;48.478;8.936;2024-01-30T03:49:17;11.77;;;7.97;;
15342;SDS011;7771;48.478;8.936;2024-01-30T03:51:44;14.33;;;8.87;;
15342;SDS011;7771;48.478;8.936;2024-01-30T03:54:11;10.57;;;8.20;;
15342;SDS011;7771;48.478;8.936;2024-01-30T03:56:38;14.90;;;9.30;;
15342;SDS011;7771;48.478;8.936;2024-01-30T03:59:06;14.00;;;9.67;;
15342;SDS011;7771;48.478;8.936;2024-01-30T04:01:34;14.30;;;8.40;;
15342;SDS011;7771;48.478;8.936;2024-01-30T04:04:00;14.27;;;9.20;;
15342;SDS011;7771;48.478;8.936;2024-01-30T04:06:28;12.37;;;8.37;;
15342;SDS011;7771;48.478;8.936;2024-01-30T04:08:54;11.73;;;9.17;;
15342;SDS011;7771;48.478;8.936;2024-01-30T04:11:21;12.70;;;8.70;;
15342;SDS011;7771;48.478;8.936;2024-01-30T04:13:47;12.67;;;8.67;;
15342;SDS011;7771;48.478;8.936;2024-01-30T04:16:20;10.93;;;8.20;;
15342;SDS011;7771;48.478;8.936;2024-01-30T04:18:46;10.10;;;7.97;;
15342;SDS011;7771;48.478;8.936;2024-01-30T04:21:13;11.47;;;8.07;;
15342;SDS011;7771;48.478;8.936;2024-01-30T04:23:40;10.53;;;8.13;;
15342;SDS011;7771;48.478;8.936;2024-01-30T04:26:07;12.20;;;8.07;;
15342;SDS011;7771;48.478;8.936;2024-01-30T04:28:34;13.90;;;8.70;;
15342;SDS011;7771;48.478;8.936;2024-01-30T04:31:01;16.67;;;10.07;;
15342;SDS011;7771;48.478;8.936;2024-01-30T04:33:29;13.97;;;9.03;;
15342;SDS011;7771;48.478;8.936;2024-01-30T04:35:55;13.17;;;9.10;;
15342;SDS011;7771;48.478;8.936;2024-01-30T04:38:23;11.47;;;9.00;;
15342;SDS011;7771;48.478;8.936;2024-01-30T04:40:51;10.73;;;8.93;;
15342;SDS011;7771;48.478;8.936;2024-01-30T04:43:18;11.73;;;8.27;;
15342;SDS011;7771;48.478;8.936;2024-01-30T04:45:45;11.80;;;8.97;;
15342;SDS011;7771;48.478;8.936;2024-01-30T04:48:11;13.80;;;9.63;;
15342;SDS011;7771;48.478;8.936;2024-01-30T04:50:38;15.20;;;10.87;;
15342;SDS011;7771;48.478;8.936;2024-01-30T04:53:05;15.03;;;10.13;;
15342;SDS011;7771;48.478;8.936;2024-01-30T04:55:32;15.50;;;10.70;;
15342;SDS011;7771;48.478;8.936;2024-01-30T04:57:59;12.00;;;9.73;;
15342;SDS011;7771;48.478;8.936;2024-01-30T05:00:25;13.30;;;9.37;;
15342;SDS011;7771;48.478;8.936;2024-01-30T05:02:54;14.60;;;8.60;;
15342;SDS011;7771;48.478;8.936;2024-01-30T05:05:21;12.47;;;8.83;;
15342;SDS011;7771;48.478;8.936;2024-01-30T05:07:48;15.10;;;8.80;;
15342;SDS011;7771;48.478;8.936;2024-01-30T05:10:16;11.70;;;8.73;;
15342;SDS011;7771;48.478;8.936;2024-01-30T05:12:42;13.70;;;9.63;;
15342;SDS011;7771;48.478;8.936;2024-01-30T05:15:09;14.60;;;9.33;;
15342;SDS011;7771;48.478;8.936;2024-01-30T05:17:36;12.40;;;8.17;;
15342;SDS011;7771;48.478;8.936;2024-01-30T05:20:04;12.10;;;8.40;;
15342;SDS011;7771;48.478;8.936;2024-01-30T05:22:31;14.83;;;8.83;;
15342;SDS011;7771;48.478;8.936;2024-01-30T05:24:58;14.37;;;9.27;;
15342;SDS011;7771;48.478;8.936;2024-01-30T05:27:26;11.27;;;8.70;;
15342;SDS011;7771;48.478;8.936;2024-01-30T05:29:55;15.97;;;8.87;;
15342;SDS011;7771;48.478;8.936;2024-01-30T05:32:22;12.50;;;8.93;;
15342;SDS011;7771;48.478;8.936;2024-01-30T05:34:49;16.57;;;9.27;;
15342;SDS011;7771;48.478;8.936;2024-01-30T05:37:17;12.97;;;9.33;;
15342;SDS011;7771;48.478;8.936;2024-01-30T05:39:44;13.80;;;9.47;;
15342;SDS011;7771;48.478;8.936;2024-01-30T05:42:11;12.27;;;8.83;;
15342;SDS011;7771;48.478;8.936;2024-01-30T05:44:38;13.53;;;9.63;;
15342;SDS011;7771;48.478;8.936;2024-01-30T05:47:05;15.23;;;9.97;;
15342;SDS011;7771;48.478;8.936;2024-01-30T05:49:32;16.50;;;10.00;;
15342;SDS011;7771;48.478;8.936;2024-01-30T05:51:59;15.20;;;10.30;;
15342;SDS011;7771;48.478;8.936;2024-01-30T05:54:26;19.53;;;12.23;;
15342;SDS011;7771;48.478;8.936;2024-01-30T05:56:54;17.10;;;11.23;;
15342;SDS011;7771;48.478;8.936;2024-01-30T05:59:20;14.20;;;9.83;;
15342;SDS011;7771;48.478;8.936;2024-01-30T06:01:47;23.63;;;12.90;;
15342;SDS011;7771;48.478;8.936;2024-01-30T06:04:14;19.53;;;12.70;;
15342;SDS011;7771;48.478;8.936;2024-01-30T06:06:41;22.47;;;13.43;;
15342;SDS011;7771;48.478;8.936;2024-01-30T06:09:09;22.00;;;12.47;;
15342;SDS011;7771;48.478;8.936;2024-01-30T06:11:35;19.20;;;12.87;;
15342;SDS011;7771;48.478;8.936;2024-01-30T06:14:04;19.80;;;12.07;;
15342;SDS011;7771;48.478;8.936;2024-01-30T06:19:09;16.30;;;12.13;;
15342;SDS011;7771;48.478;8.936;2024-01-30T06:21:35;14.40;;;11.40;;
15342;SDS011;7771;48.478;8.936;2024-01-30T06:24:03;14.53;;;9.30;;
15342;SDS011;7771;48.478;8.936;2024-01-30T06:26:30;19.17;;;11.93;;
15342;SDS011;7771;48.478;8.936;2024-01-30T06:28:58;13.03;;;9.87;;
15342;SDS011;7771;48.478;8.936;2024-01-30T06:31:26;18.53;;;10.83;;
15342;SDS011;7771;48.478;8.936;2024-01-30T06:33:56;14.57;;;9.80;;
15342;SDS011;7771;48.478;8.936;2024-01-30T06:36:24;12.53;;;8.50;;
15342;SDS011;7771;48.478;8.936;2024-01-30T06:38:50;14.63;;;9.63;;
15342;SDS011;7771;48.478;8.936;2024-01-30T06:41:17;12.43;;;9.13;;
15342;SDS011;7771;48.478;8.936;2024-01-30T06:43:43;13.43;;;8.87;;
15342;SDS011;7771;48.478;8.936;2024-01-30T06:46:12;14.27;;;9.33;;
15342;SDS011;7771;48.478;8.936;2024-01-30T06:48:40;16.00;;;8.83;;
15342;SDS011;7771;48.478;8.936;2024-01-30T06:51:07;12.90;;;9.07;;
15342;SDS011;7771;48.478;8.936;2024-01-30T06:53:33;12.87;;;9.17;;
15342;SDS011;7771;48.478;8.936;2024-01-30T06:56:01;12.53;;;8.97;;
15342;SDS011;7771;48.478;8.936;2024-01-30T06:58:29;12.50;;;8.83;;
15342;SDS011;7771;48.478;8.936;2024-01-30T07:00:56;11.73;;;7.97;;
15342;SDS011;7771;48.478;8.936;2024-01-30T07:03:22;12.10;;;8.57;;
15342;SDS011;7771;48.478;8.936;2024-01-30T07:05:51;10.83;;;8.53;;
15342;SDS011;7771;48.478;8.936;2024-01-30T07:08:17;11.60;;;8.10;;
15342;SDS011;7771;48.478;8.936;2024-01-30T07:10:47;11.73;;;8.33;;
15342;SDS011;7771;48.478;8.936;2024-01-30T07:13:15;11.20;;;8.00;;
15342;SDS011;7771;48.478;8.936;2024-01-30T07:15:43;13.67;;;9.10;;
15342;SDS011;7771;48.478;8.936;2024-01-30T07:18:10;12.03;;;8.27;;
15342;SDS011;7771;48.478;8.936;2024-01-30T07:20:37;16.27;;;8.43;;
15342;SDS011;7771;48.478;8.936;2024-01-30T07:23:05;16.17;;;11.63;;
15342;SDS011;7771;48.478;8.936;2024-01-30T07:25:31;13.83;;;8.80;;
15342;SDS011;7771;48.478;8.936;2024-01-30T07:27:59;16.63;;;11.47;;
15342;SDS011;7771;48.478;8.936;2024-01-30T07:30:26;16.20;;;11.57;;
15342;SDS011;7771;48.478;8.936;2024-01-30T07:32:55;15.13;;;9.87;;
15342;SDS011;7771;48.478;8.936;2024-01-30T07:35:21;19.23;;;11.33;;
15342;SDS011;7771;48.478;8.936;2024-01-30T07:37:48;44.17;;;25.90;;
15342;SDS011;7771;48.478;8.936;2024-01-30T07:40:15;62.30;;;33.73;;
15342;SDS011;7771;48.478;8.936;2024-01-30T07:42:43;106.10;;;54.67;;
15342;SDS011;7771;48.478;8.936;2024-01-30T07:45:11;76.43;;;41.43;;
15342;SDS011;7771;48.478;8.936;2024-01-30T07:47:37;50.27;;;35.33;;
15342;SDS011;7771;48.478;8.936;2024-01-30T07:50:06;50.90;;;32.83;;
15342;SDS011;7771;48.478;8.936;2024-01-30T07:52:33;37.23;;;27.87;;
15342;SDS011;7771;48.478;8.936;2024-01-30T07:55:00;47.40;;;32.40;;
15342;SDS011;7771;48.478;8.936;2024-01-30T07:57:27;34.77;;;24.10;;
15342;SDS011;7771;48.478;8.936;2024-01-30T07:59:54;29.70;;;20.97;;
15342;SDS011;7771;48.478;8.936;2024-01-30T08:02:20;32.07;;;22.00;;
15342;SDS011;7771;48.478;8.936;2024-01-30T08:04:48;33.60;;;22.93;;
15342;SDS011;7771;48.478;8.936;2024-01-30T08:07:16;33.47;;;23.47;;
15342;SDS011;7771;48.478;8.936;2024-01-30T08:09:44;31.77;;;22.00;;
15342;SDS011;7771;48.478;8.936;2024-01-30T08:12:10;25.33;;;17.03;;
15342;SDS011;7771;48.478;8.936;2024-01-30T08:14:38;24.43;;;16.87;;
15342;SDS011;7771;48.478;8.936;2024-01-30T08:17:04;28.60;;;18.90;;
15342;SDS011;7771;48.478;8.936;2024-01-30T08:19:31;26.07;;;16.27;;
15342;SDS011;7771;48.478;8.936;2024-01-30T08:22:00;24.60;;;15.63;;
15342;SDS011;7771;48.478;8.936;2024-01-30T08:24:26;25.23;;;16.93;;
15342;SDS011;7771;48.478;8.936;2024-01-30T08:26:53;15.80;;;11.27;;
15342;SDS011;7771;48.478;8.936;2024-01-30T08:29:19;15.07;;;10.27;;
15342;SDS011;7771;48.478;8.936;2024-01-30T08:31:46;14.30;;;9.97;;
15342;SDS011;7771;48.478;8.936;2024-01-30T08:34:13;14.63;;;10.10;;
15342;SDS011;7771;48.478;8.936;2024-01-30T08:36:42;15.23;;;10.80;;
15342;SDS011;7771;48.478;8.936;2024-01-30T08:39:09;12.67;;;9.57;;
15342;SDS011;7771;48.478;8.936;2024-01-30T08:41:37;15.77;;;11.23;;
15342;SDS011;7771;48.478;8.936;2024-01-30T08:44:05;12.80;;;10.50;;
15342;SDS011;7771;48.478;8.936;2024-01-30T08:46:32;13.90;;;10.83;;
15342;SDS011;7771;48.478;8.936;2024-01-30T08:48:59;16.57;;;12.33;;
15342;SDS011;7771;48.478;8.936;2024-01-30T08:51:25;15.27;;;11.63;;
15342;SDS011;7771;48.478;8.936;2024-01-30T08:53:53;11.33;;;8.30;;
15342;SDS011;7771;48.478;8.936;2024-01-30T08:56:19;12.33;;;8.67;;
15342;SDS011;7771;48.478;8.936;2024-01-30T08:58:48;13.00;;;8.10;;
15342;SDS011;7771;48.478;8.936;2024-01-30T09:01:15;13.17;;;8.23;;
15342;SDS011;7771;48.478;8.936;2024-01-30T09:03:42;11.33;;;7.77;;
15342;SDS011;7771;48.478;8.936;2024-01-30T09:06:10;10.53;;;7.87;;
15342;SDS011;7771;48.478;8.936;2024-01-30T09:08:38;10.50;;;7.60;;
15342;SDS011;7771;48.478;8.936;2024-01-30T09:11:09;10.40;;;7.97;;
15342;SDS011;7771;48.478;8.936;2024-01-30T09:13:40;12.57;;;7.40;;
15342;SDS011;7771;48.478;8.936;2024-01-30T09:16:08;11.53;;;7.97;;
15342;SDS011;7771;48.478;8.936;2024-01-30T09:18:36;11.90;;;8.27;;
15342;SDS011;7771;48.478;8.936;2024-01-30T09:21:04;12.03;;;8.43;;
15342;SDS011;7771;48.478;8.936;2024-01-30T09:23:31;13.63;;;8.57;;
15342;SDS011;7771;48.478;8.936;2024-01-30T09:25:58;11.70;;;7.97;;
15342;SDS011;7771;48.478;8.936;2024-01-30T09:28:25;14.27;;;8.60;;
15342;SDS011;7771;48.478;8.936;2024-01-30T09:30:52;11.73;;;8.87;;
15342;SDS011;7771;48.478;8.936;2024-01-30T09:33:19;13.40;;;8.50;;
15342;SDS011;7771;48.478;8.936;2024-01-30T09:35:46;11.47;;;8.43;;
15342;SDS011;7771;48.478;8.936;2024-01-30T09:38:14;12.03;;;8.90;;
15342;SDS011;7771;48.478;8.936;2024-01-30T09:40:40;11.30;;;8.50;;
15342;SDS011;7771;48.478;8.936;2024-01-30T09:43:07;12.33;;;8.63;;
15342;SDS011;7771;48.478;8.936;2024-01-30T09:45:34;15.43;;;9.63;;
15342;SDS011;7771;48.478;8.936;2024-01-30T09:48:02;24.27;;;17.23;;
15342;SDS011;7771;48.478;8.936;2024-01-30T09:50:31;33.63;;;21.37;;
15342;SDS011;7771;48.478;8.936;2024-01-30T09:52:57;29.57;;;20.63;;
15342;SDS011;7771;48.478;8.936;2024-01-30T09:55:24;24.53;;;14.80;;
15342;SDS011;7771;48.478;8.936;2024-01-30T09:57:51;22.33;;;16.07;;
15342;SDS011;7771;48.478;8.936;2024-01-30T10:00:17;26.47;;;17.50;;
15342;SDS011;7771;48.478;8.936;2024-01-30T10:02:45;19.93;;;14.83;;
15342;SDS011;7771;48.478;8.936;2024-01-30T10:05:14;27.67;;;16.80;;
15342;SDS011;7771;48.478;8.936;2024-01-30T10:07:49;31.67;;;21.53;;
15342;SDS011;7771;48.478;8.936;2024-01-30T10:10:09;27.73;;;21.43;;
15342;SDS011;7771;48.478;8.936;2024-01-30T10:12:37;31.47;;;22.10;;
15342;SDS011;7771;48.478;8.936;2024-01-30T10:15:06;43.73;;;24.97;;
15342;SDS011;7771;48.478;8.936;2024-01-30T10:17:33;38.97;;;27.10;;
15342;SDS011;7771;48.478;8.936;2024-01-30T10:20:00;40.17;;;26.80;;
15342;SDS011;7771;48.478;8.936;2024-01-30T10:22:27;36.27;;;24.10;;
15342;SDS011;7771;48.478;8.936;2024-01-30T10:24:54;27.00;;;19.13;;
15342;SDS011;7771;48.478;8.936;2024-01-30T10:27:25;31.97;;;21.87;;
15342;SDS011;7771;48.478;8.936;2024-01-30T10:29:50;30.63;;;20.60;;
15342;SDS011;7771;48.478;8.936;2024-01-30T10:32:18;32.47;;;22.80;;
15342;SDS011;7771;48.478;8.936;2024-01-30T10:34:45;35.17;;;25.67;;
15342;SDS011;7771;48.478;8.936;2024-01-30T10:37:13;30.27;;;22.50;;
15342;SDS011;7771;48.478;8.936;2024-01-30T10:39:43;25.23;;;17.97;;
15342;SDS011;7771;48.478;8.936;2024-01-30T10:42:13;29.57;;;17.43;;
15342;SDS011;7771;48.478;8.936;2024-01-30T10:45:14;16.33;;;12.17;;
15342;SDS011;7771;48.478;8.936;2024-01-30T10:47:26;12.00;;;9.57;;
15342;SDS011;7771;48.478;8.936;2024-01-30T10:49:55;12.47;;;9.73;;
15342;SDS011;7771;48.478;8.936;2024-01-30T10:52:21;17.03;;;11.60;;
15342;SDS011;7771;48.478;8.936;2024-01-30T10:54:48;22.87;;;15.30;;
15342;SDS011;7771;48.478;8.936;2024-01-30T10:57:15;17.63;;;10.80;;
15342;SDS011;7771;48.478;8.936;2024-01-30T10:59:42;21.23;;;14.57;;
15342;SDS011;7771;48.478;8.936;2024-01-30T11:02:09;35.47;;;22.83;;
15342;SDS011;7771;48.478;8.936;2024-01-30T11:04:37;31.20;;;21.27;;
15342;SDS011;7771;48.478;8.936;2024-01-30T11:09:48;29.87;;;20.87;;
15342;SDS011;7771;48.478;8.936;2024-01-30T11:12:15;32.07;;;20.83;;
15342;SDS011;7771;48.478;8.936;2024-01-30T11:14:41;25.03;;;18.80;;
15342;SDS011;7771;48.478;8.936;2024-01-30T11:17:09;28.77;;;21.07;;
15342;SDS011;7771;48.478;8.936;2024-01-30T11:19:35;35.90;;;23.00;;
15342;SDS011;7771;48.478;8.936;2024-01-30T11:22:03;30.33;;;21.67;;
15342;SDS011;7771;48.478;8.936;2024-01-30T11:24:36;24.43;;;17.93;;
15342;SDS011;7771;48.478;8.936;2024-01-30T11:26:58;19.73;;;15.03;;
15342;SDS011;7771;48.478;8.936;2024-01-30T11:29:25;17.77;;;12.97;;
15342;SDS011;7771;48.478;8.936;2024-01-30T11:31:52;18.00;;;10.93;;
15342;SDS011;7771;48.478;8.936;2024-01-30T11:34:20;13.87;;;10.13;;
15342;SDS011;7771;48.478;8.936;2024-01-30T11:36:46;13.10;;;9.30;;
15342;SDS011;7771;48.478;8.936;2024-01-30T11:39:15;11.60;;;9.00;;
15342;SDS011;7771;48.478;8.936;2024-01-30T11:41:40;13.90;;;11.07;;
15342;SDS011;7771;48.478;8.936;2024-01-30T11:44:07;15.27;;;11.23;;
15342;SDS011;7771;48.478;8.936;2024-01-30T11:46:35;13.07;;;10.10;;
15342;SDS011;7771;48.478;8.936;2024-01-30T11:49:03;12.40;;;9.37;;
15342;SDS011;7771;48.478;8.936;2024-01-30T11:51:30;19.17;;;13.93;;
15342;SDS011;7771;48.478;8.936;2024-01-30T11:53:57;19.17;;;13.60;;
15342;SDS011;7771;48.478;8.936;2024-01-30T11:56:24;21.43;;;15.43;;
15342;SDS011;7771;48.478;8.936;2024-01-30T11:58:51;25.60;;;15.07;;
15342;SDS011;7771;48.478;8.936;2024-01-30T12:01:18;23.17;;;14.07;;
15342;SDS011;7771;48.478;8.936;2024-01-30T12:03:50;21.83;;;15.73;;
15342;SDS011;7771;48.478;8.936;2024-01-30T12:06:18;24.07;;;14.73;;
15342;SDS011;7771;48.478;8.936;2024-01-30T12:09:00;22.00;;;13.50;;
15342;SDS011;7771;48.478;8.936;2024-01-30T12:11:26;18.27;;;13.83;;
15342;SDS011;7771;48.478;8.936;2024-01-30T12:13:53;22.63;;;14.27;;
15342;SDS011;7771;48.478;8.936;2024-01-30T12:16:20;21.87;;;14.23;;
15342;SDS011;7771;48.478;8.936;2024-01-30T12:18:46;17.83;;;14.40;;
15342;SDS011;7771;48.478;8.936;2024-01-30T12:21:16;17.40;;;14.50;;
15342;SDS011;7771;48.478;8.936;2024-01-30T12:23:43;19.70;;;14.27;;
15342;SDS011;7771;48.478;8.936;2024-01-30T12:26:09;18.33;;;14.63;;
15342;SDS011;7771;48.478;8.936;2024-01-30T12:28:36;21.53;;;14.80;;
15342;SDS011;7771;48.478;8.936;2024-01-30T12:31:03;19.40;;;14.77;;
15342;SDS011;7771;48.478;8.936;2024-01-30T12:33:30;18.93;;;15.10;;
15342;SDS011;7771;48.478;8.936;2024-01-30T12:35:57;23.23;;;14.97;;
15342;SDS011;7771;48.478;8.936;2024-01-30T12:38:24;18.50;;;15.13;;
15342;SDS011;7771;48.478;8.936;2024-01-30T12:40:55;19.60;;;14.37;;
15342;SDS011;7771;48.478;8.936;2024-01-30T12:43:22;24.73;;;15.13;;
15342;SDS011;7771;48.478;8.936;2024-01-30T12:45:49;21.00;;;14.77;;
15342;SDS011;7771;48.478;8.936;2024-01-30T12:48:18;24.07;;;16.30;;
15342;SDS011;7771;48.478;8.936;2024-01-30T12:50:44;23.60;;;15.30;;
15342;SDS011;7771;48.478;8.936;2024-01-30T12:53:11;29.40;;;19.33;;
15342;SDS011;7771;48.478;8.936;2024-01-30T12:55:38;23.70;;;18.23;;
15342;SDS011;7771;48.478;8.936;2024-01-30T12:58:06;25.70;;;18.53;;
15342;SDS011;7771;48.478;8.936;2024-01-30T13:00:34;28.07;;;18.67;;
15342;SDS011;7771;48.478;8.936;2024-01-30T13:03:01;23.23;;;18.23;;
15342;SDS011;7771;48.478;8.936;2024-01-30T13:05:28;25.40;;;17.70;;
15342;SDS011;7771;48.478;8.936;2024-01-30T13:07:56;23.43;;;17.43;;
15342;SDS011;7771;48.478;8.936;2024-01-30T13:10:22;23.70;;;17.50;;
15342;SDS011;7771;48.478;8.936;2024-01-30T13:12:50;21.17;;;16.37;;
15342;SDS011;7771;48.478;8.936;2024-01-30T13:15:17;22.53;;;17.10;;
15342;SDS011;7771;48.478;8.936;2024-01-30T13:17:45;24.73;;;17.10;;
15342;SDS011;7771;48.478;8.936;2024-01-30T13:20:13;21.10;;;15.20;;
15342;SDS011;7771;48.478;8.936;2024-01-30T13:22:40;19.10;;;15.40;;
15342;SDS011;7771;48.478;8.936;2024-01-30T13:25:08;19.63;;;15.07;;
15342;SDS011;7771;48.478;8.936;2024-01-30T13:27:36;22.77;;;16.33;;
15342;SDS011;7771;48.478;8.936;2024-01-30T13:30:02;22.80;;;15.97;;
15342;SDS011;7771;48.478;8.936;2024-01-30T13:32:30;21.67;;;16.30;;
15342;SDS011;7771;48.478;8.936;2024-01-30T13:34:56;20.37;;;14.73;;
15342;SDS011;7771;48.478;8.936;2024-01-30T13:37:23;16.67;;;12.60;;
15342;SDS011;7771;48.478;8.936;2024-01-30T13:39:50;12.47;;;9.43;;
15342;SDS011;7771;48.478;8.936;2024-01-30T13:42:17;11.80;;;8.33;;
15342;SDS011;7771;48.478;8.936;2024-01-30T13:44:46;9.40;;;7.23;;
15342;SDS011;7771;48.478;8.936;2024-01-30T13:47:13;8.43;;;6.30;;
15342;SDS011;7771;48.478;8.936;2024-01-30T13:49:40;5.73;;;4.53;;
15342;SDS011;7771;48.478;8.936;2024-01-30T13:52:08;5.43;;;4.20;;
15342;SDS011;7771;48.478;8.936;2024-01-30T13:54:35;5.07;;;3.53;;
15342;SDS011;7771;48.478;8.936;2024-01-30T13:57:02;5.13;;;3.43;;
15342;SDS011;7771;48.478;8.936;2024-01-30T13:59:30;4.37;;;3.33;;
15342;SDS011;7771;48.478;8.936;2024-01-30T14:01:57;4.47;;;2.97;;
15342;SDS011;7771;48.478;8.936;2024-01-30T14:04:24;3.30;;;2.60;;
15342;SDS011;7771;48.478;8.936;2024-01-30T14:06:50;9.57;;;3.27;;
15342;SDS011;7771;48.478;8.936;2024-01-30T14:09:17;5.97;;;2.97;;
15342;SDS011;7771;48.478;8.936;2024-01-30T14:11:44;3.57;;;2.97;;
15342;SDS011;7771;48.478;8.936;2024-01-30T14:14:11;6.10;;;3.13;;
15342;SDS011;7771;48.478;8.936;2024-01-30T14:16:39;3.77;;;2.63;;
15342;SDS011;7771;48.478;8.936;2024-01-30T14:19:05;5.47;;;2.87;;
15342;SDS011;7771;48.478;8.936;2024-01-30T14:21:33;5.53;;;3.03;;
15342;SDS011;7771;48.478;8.936;2024-01-30T14:24:00;4.97;;;3.03;;
15342;SDS011;7771;48.478;8.936;2024-01-30T14:26:28;4.90;;;3.00;;
15342;SDS011;7771;48.478;8.936;2024-01-30T14:28:55;5.37;;;3.60;;
15342;SDS011;7771;48.478;8.936;2024-01-30T14:31:22;5.17;;;3.13;;
15342;SDS011;7771;48.478;8.936;2024-01-30T14:33:48;4.97;;;3.10;;
15342;SDS011;7771;48.478;8.936;2024-01-30T14:36:17;6.47;;;3.10;;
15342;SDS011;7771;48.478;8.936;2024-01-30T14:38:43;3.83;;;2.33;;
15342;SDS011;7771;48.478;8.936;2024-01-30T14:41:10;4.30;;;2.27;;
15342;SDS011;7771;48.478;8.936;2024-01-30T14:43:36;5.77;;;3.10;;
15342;SDS011;7771;48.478;8.936;2024-01-30T14:46:03;4.60;;;2.50;;
15342;SDS011;7771;48.478;8.936;2024-01-30T14:48:30;5.13;;;2.93;;